Time;durP1;ratioP1;P1;durP2;ratioP2;P2;SDS_P1;SDS_P2;PMS_P1;PMS_P2;Temp;Humidity;BMP_temperature;BMP_pressure;BME280_temperature;BME280_humidity;BME280_pressure;Samples;Min_cycle;Max_cycle;Signal;HPM_P1;HPM_P2
2022/05/20 00:00:34;;;;;;;22.05;14.90;;;;;;;;;;4971307;28;20061;-76
2022/05/20 00:03:01;;;;;;;22.77;14.75;;;;;;;;;;4969924;28;20427;-76
2022/05/20 00:05:27;;;;;;;21.33;14.82;;;;;;;;;;4969498;28;20371;-76
2022/05/20 00:07:54;;;;;;;20.80;14.85;;;;;;;;;;4970786;28;20041;-77
2022/05/20 00:10:20;;;;;;;18.90;14.57;;;;;;;;;;4969755;28;20038;-77
2022/05/20 00:12:46;;;;;;;24.20;14.90;;;;;;;;;;4985507;28;20085;-76
2022/05/20 00:15:15;;;;;;;26.67;14.77;;;;;;;;;;4990690;28;20049;-77
2022/05/20 00:17:41;;;;;;;23.23;15.68;;;;;;;;;;4986475;28;20049;-77
2022/05/20 00:20:08;;;;;;;27.65;15.35;;;;;;;;;;4969308;28;20038;-76
2022/05/20 00:22:34;;;;;;;18.27;13.43;;;;;;;;;;4970618;28;20181;-77
2022/05/20 00:27:44;;;;;;;20.52;14.73;;;;;;;;;;4985659;28;20035;-76
2022/05/20 00:30:11;;;;;;;22.75;15.07;;;;;;;;;;4971925;28;20050;-76
2022/05/20 00:32:37;;;;;;;20.80;15.45;;;;;;;;;;4968726;28;20061;-76
2022/05/20 00:35:04;;;;;;;24.58;16.00;;;;;;;;;;4970091;28;20465;-76
2022/05/20 00:37:30;;;;;;;26.65;16.83;;;;;;;;;;5002577;28;20189;-77
2022/05/20 00:39:56;;;;;;;26.80;17.08;;;;;;;;;;4986903;28;20086;-77
2022/05/20 00:42:22;;;;;;;21.35;15.40;;;;;;;;;;4969959;28;20133;-77
2022/05/20 00:44:48;;;;;;;29.75;17.83;;;;;;;;;;4969066;28;20047;-77
2022/05/20 00:47:15;;;;;;;26.42;18.52;;;;;;;;;;4969247;28;20039;-77
2022/05/20 00:49:43;;;;;;;27.92;17.55;;;;;;;;;;4981855;28;20038;-77
2022/05/20 00:52:10;;;;;;;24.92;17.63;;;;;;;;;;4988604;28;20043;-77
2022/05/20 00:54:43;;;;;;;32.10;17.88;;;;;;;;;;4988298;28;20046;-77
2022/05/20 00:57:15;;;;;;;23.45;16.65;;;;;;;;;;4989197;28;20489;-77
2022/05/20 00:59:43;;;;;;;24.70;17.50;;;;;;;;;;4990920;28;20129;-76
2022/05/20 01:02:16;;;;;;;26.73;18.73;;;;;;;;;;4958079;28;20057;-77
2022/05/20 01:04:43;;;;;;;26.83;17.65;;;;;;;;;;4956234;28;20047;-77
2022/05/20 01:07:10;;;;;;;23.88;17.83;;;;;;;;;;4972682;28;20070;-78
2022/05/20 01:09:37;;;;;;;26.05;17.40;;;;;;;;;;4972716;28;20054;-76
2022/05/20 01:12:03;;;;;;;26.60;16.50;;;;;;;;;;4973988;28;20085;-76
2022/05/20 01:14:29;;;;;;;23.00;17.35;;;;;;;;;;4983393;28;20046;-76
2022/05/20 01:16:56;;;;;;;23.42;16.73;;;;;;;;;;4992380;28;20502;-77
2022/05/20 01:19:35;;;;;;;29.65;17.48;;;;;;;;;;4992083;28;20054;-76
2022/05/20 01:22:01;;;;;;;25.23;16.98;;;;;;;;;;4981758;28;20054;-77
2022/05/20 01:24:28;;;;;;;23.80;16.70;;;;;;;;;;4972497;28;20524;-77
2022/05/20 01:26:54;;;;;;;22.92;16.25;;;;;;;;;;4973059;28;20517;-77
2022/05/20 01:29:20;;;;;;;26.20;16.48;;;;;;;;;;4972389;28;20097;-78
2022/05/20 01:31:46;;;;;;;23.10;16.40;;;;;;;;;;4973384;28;20500;-78
2022/05/20 01:34:12;;;;;;;26.27;16.58;;;;;;;;;;4973073;28;20089;-77
2022/05/20 01:36:39;;;;;;;20.63;15.48;;;;;;;;;;4971987;28;20190;-77
2022/05/20 01:39:05;;;;;;;21.98;16.55;;;;;;;;;;4957205;28;20133;-78
2022/05/20 01:41:50;;;;;;;23.08;16.33;;;;;;;;;;4956349;28;20562;-78
2022/05/20 01:44:16;;;;;;;24.92;16.75;;;;;;;;;;4991310;28;20050;-79
2022/05/20 01:46:45;;;;;;;20.02;11.52;;;;;;;;;;4991196;28;20045;-78
2022/05/20 01:49:11;;;;;;;24.98;15.00;;;;;;;;;;4991749;28;20437;-78
2022/05/20 01:51:57;;;;;;;29.10;16.67;;;;;;;;;;4989146;28;20061;-78
2022/05/20 01:54:23;;;;;;;;;;;;;;;;;;4965670;28;20062;-78
2022/05/20 01:56:55;;;;;;;24.30;16.05;;;;;;;;;;4971398;28;20400;-78
2022/05/20 01:59:25;;;;;;;20.75;15.25;;;;;;;;;;4971706;28;20100;-77
2022/05/20 02:01:58;;;;;;;26.95;16.92;;;;;;;;;;4968955;28;20430;-78
2022/05/20 02:04:28;;;;;;;26.05;16.67;;;;;;;;;;4959659;28;20491;-78
2022/05/20 02:06:57;;;;;;;24.48;16.65;;;;;;;;;;4982654;28;20050;-78
2022/05/20 02:09:26;;;;;;;25.33;17.17;;;;;;;;;;4984159;28;20054;-78
2022/05/20 02:11:54;;;;;;;22.08;16.58;;;;;;;;;;4980281;28;20394;-78
2022/05/20 02:14:26;;;;;;;24.08;16.55;;;;;;;;;;4988072;28;20053;-78
2022/05/20 02:17:01;;;;;;;26.35;16.02;;;;;;;;;;4982546;28;20635;-77
2022/05/20 02:19:30;;;;;;;21.08;14.77;;;;;;;;;;4991154;28;20046;-78
2022/05/20 02:21:58;;;;;;;28.08;16.92;;;;;;;;;;4989409;28;20046;-78
2022/05/20 02:24:26;;;;;;;25.00;16.58;;;;;;;;;;4990516;28;20134;-78
2022/05/20 02:26:57;;;;;;;25.55;17.42;;;;;;;;;;4990836;28;20074;-77
2022/05/20 02:29:27;;;;;;;24.80;16.40;;;;;;;;;;4977948;28;20403;-78
2022/05/20 02:31:56;;;;;;;24.85;16.85;;;;;;;;;;4973473;28;20485;-78
2022/05/20 02:34:22;;;;;;;24.20;17.77;;;;;;;;;;4974672;28;20046;-78
2022/05/20 02:36:48;;;;;;;27.88;17.23;;;;;;;;;;4990282;28;20046;-78
2022/05/20 02:39:17;;;;;;;26.90;18.08;;;;;;;;;;4990479;28;20050;-78
2022/05/20 02:41:45;;;;;;;23.38;15.68;;;;;;;;;;4988621;28;20508;-78
2022/05/20 02:44:11;;;;;;;28.38;17.83;;;;;;;;;;4972138;28;20082;-78
2022/05/20 02:46:38;;;;;;;24.10;15.70;;;;;;;;;;4955170;28;20504;-79
2022/05/20 02:49:04;;;;;;;25.23;17.55;;;;;;;;;;4971991;28;20549;-79
2022/05/20 02:51:30;;;;;;;24.70;17.13;;;;;;;;;;4970876;28;20046;-78
2022/05/20 02:53:56;;;;;;;28.58;17.48;;;;;;;;;;4972511;28;20073;-79
2022/05/20 02:56:22;;;;;;;21.90;17.10;;;;;;;;;;4970574;28;20081;-78
2022/05/20 03:04:18;;;;;;;25.33;17.63;;;;;;;;;;4987909;28;20524;-78
2022/05/20 03:06:50;;;;;;;24.67;18.25;;;;;;;;;;4971970;28;20047;-79
2022/05/20 03:09:17;;;;;;;22.08;15.70;;;;;;;;;;4970940;28;20053;-79
2022/05/20 03:11:44;;;;;;;30.90;18.58;;;;;;;;;;4970718;28;20042;-78
2022/05/20 03:14:11;;;;;;;30.85;18.30;;;;;;;;;;4971607;28;20070;-78
2022/05/20 03:16:38;;;;;;;27.88;18.92;;;;;;;;;;4969708;28;20085;-77
2022/05/20 03:19:05;;;;;;;25.38;18.27;;;;;;;;;;4979367;28;20461;-76
2022/05/20 03:21:32;;;;;;;30.13;19.30;;;;;;;;;;4989147;28;20050;-76
2022/05/20 03:24:02;;;;;;;31.10;18.95;;;;;;;;;;4989842;28;20050;-77
2022/05/20 03:26:28;;;;;;;28.05;17.98;;;;;;;;;;4988223;28;20057;-77
2022/05/20 03:28:54;;;;;;;27.48;18.60;;;;;;;;;;4989657;28;20490;-78
2022/05/20 03:31:21;;;;;;;26.85;18.63;;;;;;;;;;4988023;28;20080;-77
2022/05/20 03:33:47;;;;;;;25.40;18.05;;;;;;;;;;4989497;28;20441;-77
2022/05/20 03:36:14;;;;;;;23.27;16.58;;;;;;;;;;4984027;28;20047;-77
2022/05/20 03:38:40;;;;;;;29.00;19.40;;;;;;;;;;4969944;28;20050;-77
2022/05/20 03:41:06;;;;;;;26.60;18.85;;;;;;;;;;4953802;28;20125;-78
2022/05/20 03:43:36;;;;;;;29.52;19.73;;;;;;;;;;4976021;28;20042;-77
2022/05/20 03:46:02;;;;;;;28.75;18.38;;;;;;;;;;4983633;28;20030;-77
2022/05/20 03:48:28;;;;;;;28.02;19.35;;;;;;;;;;4969389;28;20046;-77
2022/05/20 03:50:54;;;;;;;27.20;19.35;;;;;;;;;;4969272;28;20043;-77
2022/05/20 03:53:20;;;;;;;26.92;19.33;;;;;;;;;;4969815;28;20046;-76
2022/05/20 03:55:46;;;;;;;30.50;19.52;;;;;;;;;;4954378;28;20121;-76
2022/05/20 03:58:12;;;;;;;27.05;19.02;;;;;;;;;;4954671;28;20097;-77
2022/05/20 04:03:25;;;;;;;;;;;;;;;;;;4964970;28;20039;-77
2022/05/20 04:05:53;;;;;;;27.05;18.70;;;;;;;;;;4948905;29;19946;-77
2022/05/20 04:08:19;;;;;;;24.02;17.98;;;;;;;;;;4978732;28;20039;-77
2022/05/20 04:10:46;;;;;;;26.58;17.15;;;;;;;;;;4988541;28;20047;-77
2022/05/20 04:13:12;;;;;;;25.83;16.88;;;;;;;;;;4988875;28;20038;-77
2022/05/20 04:15:38;;;;;;;28.92;17.73;;;;;;;;;;4988351;28;20046;-78
2022/05/20 04:18:04;;;;;;;22.83;16.40;;;;;;;;;;4982605;28;20089;-77
2022/05/20 04:20:30;;;;;;;24.38;17.17;;;;;;;;;;4970206;28;20336;-77
2022/05/20 04:22:56;;;;;;;26.55;17.35;;;;;;;;;;4969672;28;20453;-77
2022/05/20 04:25:22;;;;;;;21.35;15.80;;;;;;;;;;4970342;28;20506;-78
2022/05/20 04:27:48;;;;;;;19.80;14.30;;;;;;;;;;4970325;28;20053;-78
2022/05/20 04:30:14;;;;;;;19.15;15.68;;;;;;;;;;4969620;28;20458;-78
2022/05/20 04:32:41;;;;;;;18.50;14.00;;;;;;;;;;4970869;28;20117;-77
2022/05/20 04:35:07;;;;;;;15.90;12.93;;;;;;;;;;4987396;28;20492;-77
2022/05/20 04:37:33;;;;;;;13.50;11.30;;;;;;;;;;4957302;28;20046;-77
2022/05/20 04:39:59;;;;;;;13.82;10.63;;;;;;;;;;4989967;28;20043;-77
2022/05/20 04:47:55;;;;;;;15.27;11.32;;;;;;;;;;4992373;28;20047;-78
2022/05/20 04:50:21;;;;;;;14.23;11.10;;;;;;;;;;4989810;28;20477;-77
2022/05/20 04:52:47;;;;;;;12.27;9.43;;;;;;;;;;4976566;28;20047;-77
2022/05/20 04:55:13;;;;;;;13.48;10.68;;;;;;;;;;4992536;28;20053;-77
2022/05/20 04:57:45;;;;;;;10.60;9.48;;;;;;;;;;4992574;28;20050;-77
2022/05/20 05:00:13;;;;;;;14.73;10.77;;;;;;;;;;4983757;28;20058;-77
2022/05/20 05:02:39;;;;;;;13.15;10.00;;;;;;;;;;4974550;28;20046;-77
2022/05/20 05:05:06;;;;;;;12.05;9.68;;;;;;;;;;4989681;28;20045;-77
2022/05/20 05:07:36;;;;;;;13.82;10.85;;;;;;;;;;4991764;28;20045;-77
2022/05/20 05:10:02;;;;;;;13.15;10.38;;;;;;;;;;4991200;28;20046;-77
2022/05/20 05:12:28;;;;;;;16.48;9.90;;;;;;;;;;4973870;28;20046;-76
2022/05/20 05:14:54;;;;;;;13.73;10.30;;;;;;;;;;4973405;28;20436;-76
2022/05/20 05:18:09;;;;;;;14.48;10.93;;;;;;;;;;4989110;28;20486;-75
2022/05/20 05:20:09;;;;;;;13.65;11.00;;;;;;;;;;4984744;28;20046;-75
2022/05/20 05:22:35;;;;;;;14.07;10.77;;;;;;;;;;4991862;28;20046;-76
2022/05/20 05:25:01;;;;;;;15.65;10.38;;;;;;;;;;4973377;28;20079;-77
2022/05/20 05:27:27;;;;;;;13.50;10.50;;;;;;;;;;4972096;28;20394;-77
2022/05/20 05:29:53;;;;;;;12.82;9.93;;;;;;;;;;4972367;28;20039;-77
2022/05/20 05:32:20;;;;;;;13.32;10.30;;;;;;;;;;4972509;28;20415;-76
2022/05/20 05:34:46;;;;;;;16.92;10.68;;;;;;;;;;4972417;28;20134;-76
2022/05/20 05:37:12;;;;;;;13.30;11.18;;;;;;;;;;4972912;28;20549;-79
2022/05/20 05:39:38;;;;;;;14.48;10.32;;;;;;;;;;4972276;28;20469;-79
2022/05/20 05:42:04;;;;;;;15.15;10.90;;;;;;;;;;4971327;28;20355;-79
2022/05/20 05:44:31;;;;;;;15.07;10.95;;;;;;;;;;4971155;28;20046;-79
2022/05/20 05:46:57;;;;;;;13.35;9.68;;;;;;;;;;4971428;28;20452;-79
2022/05/20 05:49:23;;;;;;;11.65;9.30;;;;;;;;;;4973108;28;20046;-79
2022/05/20 05:51:49;;;;;;;15.93;10.43;;;;;;;;;;4972230;28;20069;-79
2022/05/20 05:54:17;;;;;;;13.98;9.20;;;;;;;;;;4972288;28;20402;-79
2022/05/20 05:56:43;;;;;;;16.45;10.35;;;;;;;;;;4971047;28;20061;-78
2022/05/20 05:59:09;;;;;;;14.88;9.43;;;;;;;;;;4988166;28;20402;-79
2022/05/20 06:01:35;;;;;;;15.63;11.05;;;;;;;;;;4973251;28;20511;-78
2022/05/20 06:04:02;;;;;;;15.38;10.10;;;;;;;;;;4971751;28;20043;-78
2022/05/20 06:06:28;;;;;;;15.18;10.30;;;;;;;;;;4971781;28;20069;-78
2022/05/20 06:08:55;;;;;;;15.07;10.48;;;;;;;;;;4971192;28;20566;-78
2022/05/20 06:11:21;;;;;;;16.05;10.57;;;;;;;;;;4970979;28;20351;-78
2022/05/20 06:13:47;;;;;;;14.55;10.18;;;;;;;;;;4972390;28;20047;-79
2022/05/20 06:16:18;;;;;;;16.48;10.52;;;;;;;;;;5006816;28;20047;-79
2022/05/20 06:18:44;;;;;;;14.60;9.60;;;;;;;;;;4983861;28;20398;-78
2022/05/20 06:21:10;;;;;;;13.77;8.57;;;;;;;;;;4972664;28;20089;-76
2022/05/20 06:23:36;;;;;;;10.32;6.97;;;;;;;;;;4970993;28;20042;-77
2022/05/20 06:26:02;;;;;;;12.98;8.57;;;;;;;;;;4971414;28;20087;-76
2022/05/20 06:28:30;;;;;;;14.38;8.90;;;;;;;;;;4971220;28;20082;-76
2022/05/20 06:30:57;;;;;;;12.48;7.45;;;;;;;;;;4986731;28;20047;-77
2022/05/20 06:33:24;;;;;;;11.75;8.23;;;;;;;;;;4971183;28;20663;-77
2022/05/20 06:41:20;;;;;;;11.15;7.30;;;;;;;;;;4985468;28;20051;-75
2022/05/20 06:43:46;;;;;;;10.10;6.28;;;;;;;;;;4970476;28;20125;-75
2022/05/20 06:46:12;;;;;;;11.90;6.43;;;;;;;;;;4970831;28;20379;-78
2022/05/20 06:48:44;;;;;;;11.82;7.05;;;;;;;;;;4970742;28;20494;-77
2022/05/20 06:51:11;;;;;;;12.02;6.95;;;;;;;;;;4970460;28;20045;-75
2022/05/20 06:53:37;;;;;;;10.02;6.80;;;;;;;;;;4973840;28;20042;-77
2022/05/20 06:56:03;;;;;;;14.40;7.60;;;;;;;;;;4971656;28;20707;-74
2022/05/20 06:58:31;;;;;;;11.82;7.55;;;;;;;;;;4970051;28;20108;-78
2022/05/20 07:00:57;;;;;;;9.77;6.20;;;;;;;;;;4969678;28;20398;-76
2022/05/20 07:03:23;;;;;;;8.02;5.90;;;;;;;;;;4990912;28;20038;-75
2022/05/20 07:05:50;;;;;;;10.98;6.32;;;;;;;;;;4970193;28;20046;-80
2022/05/20 07:08:16;;;;;;;11.63;7.25;;;;;;;;;;4970328;28;20046;-81
2022/05/20 07:10:42;;;;;;;9.57;7.30;;;;;;;;;;4969426;28;20039;-74
2022/05/20 07:13:08;;;;;;;11.82;8.10;;;;;;;;;;4975878;28;20039;-79
2022/05/20 07:15:34;;;;;;;10.25;7.03;;;;;;;;;;4987147;28;20050;-74
2022/05/20 07:18:00;;;;;;;11.93;7.50;;;;;;;;;;4980722;28;20046;-74
2022/05/20 07:20:26;;;;;;;11.95;7.35;;;;;;;;;;4970425;28;20050;-74
2022/05/20 07:22:52;;;;;;;11.07;7.53;;;;;;;;;;4954222;28;20534;-76
2022/05/20 07:25:19;;;;;;;11.57;8.48;;;;;;;;;;4969568;28;20453;-76
2022/05/20 07:27:45;;;;;;;12.70;7.95;;;;;;;;;;5001409;28;20094;-75
2022/05/20 07:30:12;;;;;;;10.43;7.07;;;;;;;;;;4983905;28;20042;-75
2022/05/20 07:32:38;;;;;;;10.82;7.13;;;;;;;;;;4974276;28;20047;-75
2022/05/20 07:35:05;;;;;;;14.40;6.97;;;;;;;;;;4969960;28;20050;-74
2022/05/20 07:37:31;;;;;;;11.52;6.50;;;;;;;;;;4969731;28;20050;-76
2022/05/20 07:39:57;;;;;;;13.13;6.90;;;;;;;;;;4969177;28;20619;-74
2022/05/20 07:42:23;;;;;;;12.93;7.55;;;;;;;;;;4971572;28;20561;-74
2022/05/20 07:44:50;;;;;;;13.00;8.43;;;;;;;;;;4985478;28;20047;-80
2022/05/20 07:47:16;;;;;;;12.32;8.30;;;;;;;;;;4986614;28;20053;-76
2022/05/20 07:49:42;;;;;;;12.52;7.72;;;;;;;;;;4986044;28;20525;-76
2022/05/20 07:52:10;;;;;;;11.40;8.07;;;;;;;;;;4985809;28;20074;-74
2022/05/20 07:54:39;;;;;;;10.98;7.85;;;;;;;;;;4970722;28;20150;-75
2022/05/20 07:57:07;;;;;;;14.60;8.93;;;;;;;;;;4986515;28;20039;-74
2022/05/20 07:59:48;;;;;;;11.77;8.38;;;;;;;;;;4983599;28;20104;-76
2022/05/20 08:02:15;;;;;;;13.93;8.95;;;;;;;;;;4969919;28;20047;-78
2022/05/20 08:05:00;;;;;;;14.10;9.85;;;;;;;;;;4968774;28;20050;-74
2022/05/20 08:07:34;;;;;;;12.63;8.70;;;;;;;;;;4968711;28;20049;-74
2022/05/20 08:10:01;;;;;;;11.57;8.35;;;;;;;;;;4969907;28;20399;-74
2022/05/20 08:12:27;;;;;;;10.85;9.05;;;;;;;;;;4969581;28;20105;-75
2022/05/20 08:14:53;;;;;;;13.63;9.10;;;;;;;;;;4971041;28;20085;-73
2022/05/20 08:17:21;;;;;;;14.25;9.73;;;;;;;;;;4973891;28;20057;-75
2022/05/20 08:19:48;;;;;;;10.35;8.10;;;;;;;;;;5001250;28;20054;-75
2022/05/20 08:22:16;;;;;;;10.98;8.25;;;;;;;;;;4969105;28;20055;-75
2022/05/20 08:24:43;;;;;;;11.68;8.65;;;;;;;;;;4996017;28;20050;-74
2022/05/20 08:27:09;;;;;;;11.98;8.23;;;;;;;;;;4954564;28;20053;-75
2022/05/20 08:29:35;;;;;;;10.43;8.57;;;;;;;;;;4969176;28;20561;-74
2022/05/20 08:32:01;;;;;;;11.98;8.10;;;;;;;;;;4988541;28;20553;-75
2022/05/20 08:34:27;;;;;;;9.50;7.57;;;;;;;;;;4969105;28;20062;-75
2022/05/20 08:36:53;;;;;;;11.25;7.70;;;;;;;;;;4978436;28;20448;-76
2022/05/20 08:39:19;;;;;;;16.00;9.27;;;;;;;;;;4988417;28;20050;-76
2022/05/20 08:41:55;;;;;;;10.15;8.45;;;;;;;;;;4986208;28;20078;-74
2022/05/20 08:44:22;;;;;;;13.07;9.30;;;;;;;;;;4988046;28;20555;-74
2022/05/20 08:46:49;;;;;;;10.93;8.60;;;;;;;;;;4983869;28;20066;-77
2022/05/20 08:49:18;;;;;;;11.98;8.68;;;;;;;;;;4968812;28;20047;-75
2022/05/20 08:51:49;;;;;;;13.13;8.98;;;;;;;;;;4969452;28;20049;-75
2022/05/20 08:54:16;;;;;;;11.68;8.52;;;;;;;;;;4969218;28;20513;-76
2022/05/20 08:56:42;;;;;;;10.27;8.82;;;;;;;;;;4969768;28;20045;-76
2022/05/20 08:59:10;;;;;;;11.95;9.43;;;;;;;;;;4969895;28;20038;-76
2022/05/20 09:01:38;;;;;;;10.75;7.82;;;;;;;;;;4986262;28;20537;-76
2022/05/20 09:04:08;;;;;;;10.90;8.73;;;;;;;;;;4976543;28;20125;-74
2022/05/20 09:06:38;;;;;;;13.50;9.57;;;;;;;;;;4968585;28;20487;-74
2022/05/20 09:09:10;;;;;;;12.43;8.40;;;;;;;;;;4969065;28;20042;-74
2022/05/20 09:11:36;;;;;;;12.23;8.50;;;;;;;;;;4968351;28;20133;-74
2022/05/20 09:16:56;;;;;;;11.52;8.00;;;;;;;;;;4966208;28;20047;-74
2022/05/20 09:19:28;;;;;;;10.40;8.23;;;;;;;;;;4969057;28;20130;-77
2022/05/20 09:22:02;;;;;;;11.98;7.72;;;;;;;;;;4972673;28;20053;-73
2022/05/20 09:24:35;;;;;;;10.40;7.88;;;;;;;;;;4970971;28;20133;-76
2022/05/20 09:27:06;;;;;;;13.65;8.13;;;;;;;;;;4987528;28;20042;-74
2022/05/20 09:29:34;;;;;;;11.43;8.43;;;;;;;;;;4997972;28;20089;-75
2022/05/20 09:32:02;;;;;;;11.52;7.75;;;;;;;;;;4978432;28;20039;-75
2022/05/20 09:34:28;;;;;;;9.80;7.57;;;;;;;;;;4989750;28;20588;-74
2022/05/20 09:37:00;;;;;;;10.48;8.15;;;;;;;;;;4983300;28;20486;-74
2022/05/20 09:39:27;;;;;;;10.25;7.70;;;;;;;;;;4972172;28;20125;-74
2022/05/20 09:41:58;;;;;;;10.63;8.00;;;;;;;;;;4959555;28;20198;-74
2022/05/20 09:44:32;;;;;;;11.55;8.18;;;;;;;;;;4971856;28;20054;-74
2022/05/20 09:47:10;;;;;;;9.57;7.03;;;;;;;;;;4971268;28;20038;-73
2022/05/20 09:49:54;;;;;;;13.00;9.48;;;;;;;;;;4972123;28;20043;-74
2022/05/20 09:52:20;;;;;;;11.02;8.52;;;;;;;;;;4972676;28;20042;-74
2022/05/20 09:54:48;;;;;;;11.23;8.60;;;;;;;;;;4987522;28;20379;-73
2022/05/20 09:57:27;;;;;;;11.32;8.77;;;;;;;;;;4981406;28;20121;-76
2022/05/20 10:00:04;;;;;;;10.23;8.32;;;;;;;;;;4975984;28;20042;-74
2022/05/20 10:02:31;;;;;;;12.70;8.68;;;;;;;;;;4971740;28;20112;-77
2022/05/20 10:05:19;;;;;;;13.23;8.80;;;;;;;;;;4976782;28;20042;-73
2022/05/20 10:07:45;;;;;;;12.50;8.38;;;;;;;;;;4978850;28;20052;-76
2022/05/20 10:10:15;;;;;;;12.27;8.50;;;;;;;;;;4972850;28;20077;-75
2022/05/20 10:12:43;;;;;;;10.90;8.57;;;;;;;;;;4992389;28;20039;-75
2022/05/20 10:15:12;;;;;;;12.57;8.55;;;;;;;;;;4989183;28;20071;-73
2022/05/20 10:17:43;;;;;;;10.45;8.25;;;;;;;;;;4990149;28;20100;-79
2022/05/20 10:20:23;;;;;;;10.30;8.80;;;;;;;;;;4989672;28;20485;-77
2022/05/20 10:23:08;;;;;;;11.77;8.55;;;;;;;;;;4976705;28;20127;-74
2022/05/20 10:25:56;;;;;;;10.48;8.75;;;;;;;;;;4968301;28;20503;-74
2022/05/20 10:34:09;;;;;;;15.27;8.65;;;;;;;;;;4968065;28;20101;-74
2022/05/20 10:36:41;;;;;;;12.70;8.60;;;;;;;;;;4960509;28;20050;-74
2022/05/20 10:39:22;;;;;;;10.90;7.97;;;;;;;;;;4978790;28;20050;-73
2022/05/20 10:41:48;;;;;;;13.95;9.63;;;;;;;;;;4979495;28;20482;-75
2022/05/20 10:50:26;;;;;;;10.50;8.02;;;;;;;;;;4986766;28;20051;-77
2022/05/20 10:53:08;;;;;;;10.75;6.68;;;;;;;;;;4973098;28;20051;-75
2022/05/20 10:55:34;;;;;;;11.95;8.07;;;;;;;;;;4980436;28;20045;-74
2022/05/20 10:58:03;;;;;;;12.05;7.80;;;;;;;;;;4980834;28;20038;-74
2022/05/20 11:00:34;;;;;;;9.57;5.82;;;;;;;;;;4975795;28;20061;-77
2022/05/20 11:03:18;;;;;;;11.75;6.57;;;;;;;;;;4979579;28;20053;-73
2022/05/20 11:06:03;;;;;;;12.05;8.32;;;;;;;;;;4977880;28;20403;-75
2022/05/20 11:08:48;;;;;;;10.20;7.50;;;;;;;;;;4972506;28;20042;-79
2022/05/20 11:11:24;;;;;;;10.82;7.30;;;;;;;;;;4983707;28;20486;-78
2022/05/20 11:14:06;;;;;;;10.02;6.65;;;;;;;;;;4979465;28;20050;-77
2022/05/20 11:16:52;;;;;;;7.85;6.00;;;;;;;;;;4971618;28;20046;-74
2022/05/20 11:19:21;;;;;;;10.07;6.53;;;;;;;;;;4986347;28;20082;-75
2022/05/20 11:22:06;;;;;;;8.98;6.53;;;;;;;;;;4987723;28;20042;-75
2022/05/20 11:24:35;;;;;;;9.63;6.90;;;;;;;;;;4979823;28;20062;-78
2022/05/20 11:27:01;;;;;;;8.80;6.30;;;;;;;;;;4973848;28;20375;-79
2022/05/20 11:29:40;;;;;;;9.45;6.00;;;;;;;;;;4971303;28;20051;-77
2022/05/20 11:32:07;;;;;;;8.02;5.80;;;;;;;;;;4971731;28;20487;-78
2022/05/20 11:34:51;;;;;;;8.00;5.63;;;;;;;;;;4970828;28;20086;-78
2022/05/20 11:37:17;;;;;;;7.75;5.60;;;;;;;;;;4954773;28;20046;-77
2022/05/20 11:39:43;;;;;;;8.63;5.22;;;;;;;;;;4970248;28;20050;-76
2022/05/20 11:42:15;;;;;;;7.35;5.13;;;;;;;;;;4973916;28;20437;-74
2022/05/20 11:45:10;;;;;;;8.52;4.57;;;;;;;;;;4989291;28;20042;-75
2022/05/20 11:47:36;;;;;;;7.00;4.40;;;;;;;;;;4985608;28;20043;-75
2022/05/20 11:50:31;;;;;;;8.43;4.70;;;;;;;;;;4970192;28;20435;-77
2022/05/20 11:53:24;;;;;;;8.32;4.80;;;;;;;;;;4935311;28;20495;-73
2022/05/20 11:55:53;;;;;;;7.15;4.10;;;;;;;;;;4966951;28;20051;-74
2022/05/20 11:58:25;;;;;;;5.97;4.07;;;;;;;;;;4968951;28;20070;-77
2022/05/20 12:00:52;;;;;;;6.00;4.05;;;;;;;;;;4983044;28;20109;-74
2022/05/20 12:03:29;;;;;;;5.18;3.40;;;;;;;;;;4984992;28;20042;-75
2022/05/20 12:05:55;;;;;;;6.10;4.10;;;;;;;;;;4968892;28;20130;-75
2022/05/20 12:08:44;;;;;;;5.35;3.50;;;;;;;;;;4968269;28;20047;-76
2022/05/20 12:11:25;;;;;;;6.82;3.80;;;;;;;;;;4968222;28;20045;-77
2022/05/20 12:14:13;;;;;;;6.70;3.28;;;;;;;;;;4971601;28;20509;-76
2022/05/20 12:16:58;;;;;;;5.95;4.05;;;;;;;;;;4967684;28;20129;-76
2022/05/20 12:25:21;;;;;;;6.22;4.93;;;;;;;;;;4983463;28;21054;-78
2022/05/20 12:28:00;;;;;;;9.23;5.28;;;;;;;;;;4968703;28;20070;-78
2022/05/20 12:30:37;;;;;;;7.35;5.00;;;;;;;;;;4969359;28;20069;-75
2022/05/20 12:33:20;;;;;;;9.05;5.25;;;;;;;;;;4969083;28;20042;-74
2022/05/20 12:36:06;;;;;;;7.47;5.25;;;;;;;;;;4970695;28;20494;-77
2022/05/20 12:38:32;;;;;;;7.75;5.20;;;;;;;;;;4969517;28;20412;-75
2022/05/20 12:40:59;;;;;;;9.82;5.20;;;;;;;;;;4969025;28;20039;-77
2022/05/20 12:43:42;;;;;;;8.05;5.55;;;;;;;;;;4969211;28;20043;-74
2022/05/20 12:46:12;;;;;;;9.27;4.70;;;;;;;;;;4969245;28;20049;-78
2022/05/20 12:48:38;;;;;;;6.53;4.70;;;;;;;;;;4969770;28;20123;-76
2022/05/20 12:51:07;;;;;;;9.00;5.20;;;;;;;;;;4968757;28;20121;-75
2022/05/20 12:53:34;;;;;;;7.60;5.38;;;;;;;;;;4970814;28;20051;-77
2022/05/20 12:56:00;;;;;;;9.82;5.47;;;;;;;;;;4972523;28;20039;-77
2022/05/20 12:58:28;;;;;;;8.50;6.10;;;;;;;;;;4972820;28;20065;-79
2022/05/20 13:00:55;;;;;;;9.93;6.32;;;;;;;;;;4972143;28;20054;-76
2022/05/20 13:03:24;;;;;;;7.38;5.70;;;;;;;;;;4972837;28;20034;-76
2022/05/20 13:06:04;;;;;;;8.27;5.75;;;;;;;;;;4973898;28;20126;-77
2022/05/20 13:08:31;;;;;;;7.80;5.25;;;;;;;;;;4973133;28;20372;-76
2022/05/20 13:11:11;;;;;;;9.18;5.82;;;;;;;;;;4971883;28;20110;-77
2022/05/20 13:13:38;;;;;;;7.18;4.88;;;;;;;;;;4972515;28;20486;-75
2022/05/20 13:16:05;;;;;;;6.40;5.00;;;;;;;;;;4971955;28;20039;-78
2022/05/20 13:18:33;;;;;;;8.05;5.30;;;;;;;;;;4972639;28;20497;-74
2022/05/20 13:21:04;;;;;;;9.57;5.80;;;;;;;;;;4988878;28;20471;-76
2022/05/20 13:23:32;;;;;;;7.80;5.70;;;;;;;;;;4971890;28;20105;-74
2022/05/20 13:25:58;;;;;;;8.07;5.53;;;;;;;;;;4971973;28;20043;-74
2022/05/20 13:28:26;;;;;;;8.05;5.60;;;;;;;;;;4972080;28;20042;-75
2022/05/20 13:31:13;;;;;;;8.40;5.40;;;;;;;;;;4972158;28;20070;-75
2022/05/20 13:33:41;;;;;;;9.77;5.97;;;;;;;;;;4956241;28;20129;-75
2022/05/20 13:36:08;;;;;;;9.40;5.70;;;;;;;;;;4972384;28;20057;-76
2022/05/20 13:38:35;;;;;;;12.02;6.85;;;;;;;;;;4973450;28;20117;-77
2022/05/20 13:41:02;;;;;;;10.43;6.75;;;;;;;;;;4972010;28;20082;-77
2022/05/20 13:43:30;;;;;;;16.23;7.63;;;;;;;;;;4972729;28;20050;-77
2022/05/20 13:51:34;;;;;;;14.30;7.40;;;;;;;;;;4972157;28;20058;-72
2022/05/20 13:54:03;;;;;;;18.98;10.40;;;;;;;;;;4971079;28;20054;-72
2022/05/20 13:56:37;;;;;;;15.52;9.27;;;;;;;;;;4987970;28;20082;-71
2022/05/20 13:59:18;;;;;;;15.88;10.05;;;;;;;;;;4971035;28;20043;-71
2022/05/20 14:01:46;;;;;;;15.63;8.32;;;;;;;;;;4987691;28;20094;-71
2022/05/20 14:04:12;;;;;;;11.98;7.20;;;;;;;;;;4987485;28;20050;-72
2022/05/20 14:06:38;;;;;;;12.23;7.60;;;;;;;;;;4971686;28;20105;-72
2022/05/20 14:09:05;;;;;;;13.90;8.75;;;;;;;;;;4970936;28;20039;-74
2022/05/20 14:11:44;;;;;;;15.10;8.93;;;;;;;;;;4987775;28;20043;-74
2022/05/20 14:14:15;;;;;;;17.25;8.98;;;;;;;;;;4971278;28;20051;-76
2022/05/20 14:16:43;;;;;;;12.70;8.20;;;;;;;;;;4987711;28;20042;-72
2022/05/20 14:19:28;;;;;;;15.48;9.40;;;;;;;;;;4971512;28;20379;-71
2022/05/20 14:21:59;;;;;;;13.55;8.07;;;;;;;;;;4971037;28;20090;-71
2022/05/20 14:24:26;;;;;;;14.40;9.80;;;;;;;;;;4971028;28;20376;-71
2022/05/20 14:26:53;;;;;;;16.48;10.23;;;;;;;;;;4970826;28;20038;-71
2022/05/20 14:29:37;;;;;;;13.80;9.95;;;;;;;;;;4987296;28;20046;-71
2022/05/20 14:32:14;;;;;;;14.07;9.90;;;;;;;;;;4987238;28;20051;-72
2022/05/20 14:34:44;;;;;;;12.40;9.00;;;;;;;;;;4987230;28;20683;-71
2022/05/20 14:37:20;;;;;;;13.02;9.02;;;;;;;;;;4970183;28;20043;-71
2022/05/20 14:39:48;;;;;;;13.95;8.75;;;;;;;;;;4972161;28;20199;-70
2022/05/20 14:42:24;;;;;;;13.35;9.40;;;;;;;;;;4970950;28;20090;-70
2022/05/20 14:44:54;;;;;;;18.23;10.50;;;;;;;;;;4970279;28;20142;-71
2022/05/20 14:47:26;;;;;;;16.40;10.00;;;;;;;;;;4954696;28;20049;-71
2022/05/20 14:49:57;;;;;;;13.45;10.30;;;;;;;;;;4986516;28;20042;-70
2022/05/20 14:52:50;;;;;;;16.23;10.73;;;;;;;;;;4986814;28;20101;-70
2022/05/20 14:55:27;;;;;;;18.33;11.40;;;;;;;;;;4951588;28;20054;-70
2022/05/20 14:58:02;;;;;;;14.45;10.30;;;;;;;;;;4986420;28;20130;-72
2022/05/20 15:00:30;;;;;;;15.80;11.35;;;;;;;;;;4986272;28;20063;-71
2022/05/20 15:02:57;;;;;;;17.73;11.57;;;;;;;;;;4971657;28;20046;-72
2022/05/20 15:05:25;;;;;;;16.77;11.43;;;;;;;;;;4970183;28;20097;-73
2022/05/20 15:07:57;;;;;;;17.42;11.38;;;;;;;;;;4970486;28;20522;-72
2022/05/20 15:10:23;;;;;;;17.30;11.13;;;;;;;;;;4970462;28;20042;-74
2022/05/20 15:12:49;;;;;;;16.63;11.82;;;;;;;;;;4970108;28;20042;-72
2022/05/20 15:15:16;;;;;;;17.63;11.45;;;;;;;;;;4986231;28;20047;-73
2022/05/20 15:17:56;;;;;;;17.40;11.38;;;;;;;;;;4970870;28;20409;-74
2022/05/20 15:20:23;;;;;;;17.08;12.13;;;;;;;;;;4971501;28;20111;-74
2022/05/20 15:22:49;;;;;;;19.38;11.98;;;;;;;;;;4970424;28;20567;-73
2022/05/20 15:25:16;;;;;;;17.10;10.93;;;;;;;;;;4971224;28;20038;-74
2022/05/20 15:27:42;;;;;;;22.75;12.80;;;;;;;;;;4971923;28;20051;-73